createdAt,value
2019-04-11T00:00:26.033Z,47.85
2019-04-11T00:02:55.259Z,44.13
2019-04-11T00:05:23.939Z,48.42
2019-04-11T00:07:52.411Z,44.05
2019-04-11T00:10:22.767Z,44.63
2019-04-11T00:12:51.239Z,43.85
2019-04-11T00:15:20.320Z,43.02
2019-04-11T00:17:48.792Z,42.93
2019-04-11T00:20:18.058Z,42.73
2019-04-11T00:22:47.825Z,44.63
2019-04-11T00:25:17.712Z,45.75
2019-04-11T00:27:46.169Z,39.90
2019-04-11T00:30:15.709Z,43.90
2019-04-11T00:32:44.184Z,43.52
2019-04-11T00:35:12.683Z,36.30
2019-04-11T00:37:41.256Z,39.15
2019-04-11T00:40:10.992Z,40.30
2019-04-11T00:42:39.526Z,38.75
2019-04-11T00:45:08.187Z,40.17
2019-04-11T00:47:38.140Z,39.23
2019-04-11T00:50:07.522Z,37.35
2019-04-11T00:52:37.101Z,36.23
2019-04-11T00:55:07.077Z,36.45
2019-04-11T00:57:35.681Z,33.58
2019-04-11T01:00:06.945Z,36.40
2019-04-11T01:02:35.815Z,28.75
2019-04-11T01:05:06.113Z,36.60
2019-04-11T01:07:35.308Z,36.73
2019-04-11T01:10:06.640Z,32.60
2019-04-11T01:12:35.201Z,36.48
2019-04-11T01:15:07.042Z,33.88
2019-04-11T01:17:35.560Z,37.25
2019-04-11T01:20:07.076Z,27.90
2019-04-11T01:22:35.478Z,24.18
2019-04-11T01:25:06.338Z,20.27
2019-04-11T01:27:36.153Z,31.10
2019-04-11T01:30:08.720Z,25.32
2019-04-11T01:32:38.144Z,22.80
2019-04-11T01:35:07.030Z,21.45
2019-04-11T01:37:36.221Z,21.90
2019-04-11T01:40:05.757Z,18.87
2019-04-11T01:42:35.430Z,19.02
2019-04-11T01:45:05.339Z,17.75
2019-04-11T01:47:42.689Z,16.27
2019-04-11T01:50:12.550Z,17.37
2019-04-11T01:52:41.072Z,20.60
2019-04-11T01:55:10.304Z,17.23
2019-04-11T01:57:38.855Z,17.90
2019-04-11T02:00:10.848Z,19.85
2019-04-11T02:02:40.992Z,17.92
2019-04-11T02:05:14.533Z,15.90
2019-04-11T02:07:42.988Z,13.68
2019-04-11T02:10:12.675Z,18.20
2019-04-11T02:12:41.566Z,18.40
2019-04-11T02:15:10.354Z,19.42
2019-04-11T02:17:41.584Z,15.65
2019-04-11T02:20:10.071Z,14.33
2019-04-11T02:22:40.400Z,20.48
2019-04-11T02:25:28.235Z,16.30
2019-04-11T02:27:58.115Z,17.45
2019-04-11T02:30:27.912Z,20.55
2019-04-11T02:32:58.315Z,18.98
2019-04-11T02:35:26.976Z,16.67
2019-04-11T02:37:56.881Z,20.05
2019-04-11T02:40:27.509Z,17.65
2019-04-11T02:42:57.291Z,19.80
2019-04-11T02:45:40.870Z,20.32
2019-04-11T02:47:57.129Z,19.35
2019-04-11T02:50:26.612Z,19.12
2019-04-11T02:52:56.717Z,17.25
2019-04-11T02:55:27.561Z,25.00
2019-04-11T02:57:56.896Z,22.73
2019-04-11T03:00:28.697Z,19.15
2019-04-11T03:02:57.032Z,18.95
2019-04-11T03:05:26.853Z,20.77
2019-04-11T03:07:56.453Z,18.02
2019-04-11T03:10:27.121Z,17.27
2019-04-11T03:12:56.856Z,19.20
2019-04-11T03:15:41.531Z,17.17
2019-04-11T03:18:01.818Z,16.80
2019-04-11T03:20:32.562Z,20.00
2019-04-11T03:23:00.387Z,19.50
2019-04-11T03:25:28.350Z,18.37
2019-04-11T03:27:58.849Z,22.58
2019-04-11T03:30:42.396Z,21.40
2019-04-11T03:33:54.454Z,20.37
2019-04-11T03:36:24.704Z,24.10
2019-04-11T03:38:27.679Z,19.85
2019-04-11T03:40:48.220Z,19.92
2019-04-11T03:43:12.007Z,18.10
2019-04-11T03:45:51.316Z,23.62
2019-04-11T03:48:15.224Z,16.07
2019-04-11T03:50:32.800Z,19.90
2019-04-11T03:53:03.838Z,19.85
2019-04-11T03:55:32.668Z,19.57
2019-04-11T03:58:01.647Z,20.23
2019-04-11T04:00:36.055Z,19.23
2019-04-11T04:03:01.545Z,20.17
2019-04-11T04:05:34.640Z,20.57
2019-04-11T04:08:03.861Z,21.57
2019-04-11T04:10:34.162Z,20.02
2019-04-11T04:13:05.464Z,18.77
2019-04-11T04:15:53.515Z,19.17
2019-04-11T04:21:17.307Z,25.12
2019-04-11T04:23:46.418Z,23.57
2019-04-11T04:26:16.789Z,21.70
2019-04-11T04:28:45.323Z,20.43
2019-04-11T04:31:16.328Z,23.60
2019-04-11T04:33:45.570Z,23.42
2019-04-11T04:36:17.787Z,23.32
2019-04-11T04:38:46.580Z,24.35
2019-04-11T04:41:26.839Z,22.62
2019-04-11T04:43:48.087Z,21.25
2019-04-11T04:46:31.376Z,24.65
2019-04-11T04:48:49.164Z,22.05
2019-04-11T04:51:18.321Z,20.17
2019-04-11T04:53:48.129Z,22.52
2019-04-11T04:56:22.778Z,21.60
2019-04-11T04:58:48.423Z,26.42
2019-04-11T05:01:17.562Z,19.27
2019-04-11T05:03:48.628Z,21.25
2019-04-11T05:06:18.587Z,18.92
2019-04-11T05:08:47.518Z,22.70
2019-04-11T05:11:15.987Z,23.20
2019-04-11T05:13:48.171Z,21.57
2019-04-11T05:16:17.663Z,24.75
2019-04-11T05:18:44.749Z,23.55
2019-04-11T05:21:13.598Z,24.95
2019-04-11T05:23:42.053Z,19.10
2019-04-11T05:26:10.929Z,19.77
2019-04-11T05:28:39.533Z,25.75
2019-04-11T05:31:08.090Z,27.27
2019-04-11T05:33:37.099Z,19.80
2019-04-11T05:36:06.006Z,21.30
2019-04-11T05:38:35.883Z,23.40
2019-04-11T05:41:09.478Z,20.35
2019-04-11T05:43:37.386Z,25.90
2019-04-11T05:46:22.883Z,23.75
2019-04-11T05:48:41.125Z,22.30
2019-04-11T05:51:09.624Z,20.17
2019-04-11T05:53:38.764Z,19.45
2019-04-11T05:56:09.157Z,20.02
2019-04-11T05:58:42.219Z,22.87
2019-04-11T06:01:29.227Z,20.20
2019-04-11T06:04:00.494Z,23.07
2019-04-11T06:06:40.342Z,19.25
2019-04-11T06:09:13.375Z,23.32
2019-04-11T06:11:54.562Z,29.18
2019-04-11T06:14:27.138Z,21.42
2019-04-11T06:16:57.553Z,22.60
2019-04-11T06:19:37.760Z,19.20
2019-04-11T06:22:08.694Z,23.67
2019-04-11T06:24:50.588Z,22.27
2019-04-11T06:27:36.459Z,22.37
2019-04-11T06:30:15.935Z,19.87
2019-04-11T06:33:02.585Z,22.40
2019-04-11T06:35:50.357Z,22.73
2019-04-11T06:38:35.764Z,26.62
2019-04-11T06:41:18.744Z,22.05
2019-04-11T06:43:52.136Z,26.68
2019-04-11T06:46:22.359Z,23.00
2019-04-11T06:48:52.430Z,21.35
2019-04-11T06:51:22.490Z,26.23
2019-04-11T06:54:12.738Z,23.57
2019-04-11T06:56:43.416Z,21.40
2019-04-11T06:59:14.390Z,21.75
2019-04-11T07:01:45.367Z,24.30
2019-04-11T07:04:21.863Z,25.23
2019-04-11T07:06:52.242Z,24.57
2019-04-11T07:09:39.438Z,22.85
2019-04-11T07:12:09.826Z,22.48
2019-04-11T07:14:52.940Z,23.77
2019-04-11T07:17:40.335Z,21.12
2019-04-11T07:20:13.822Z,19.45
2019-04-11T07:23:00.066Z,24.02
2019-04-11T07:25:31.077Z,24.45
2019-04-11T07:28:01.518Z,24.40
2019-04-11T07:30:47.672Z,22.10
2019-04-11T07:33:26.997Z,29.32
2019-04-11T07:36:14.545Z,23.42
2019-04-11T07:38:56.733Z,22.02
2019-04-11T07:41:39.408Z,27.70
2019-04-11T07:44:19.718Z,22.62
2019-04-11T07:46:50.098Z,27.22
2019-04-11T07:49:35.084Z,24.30
2019-04-11T07:52:06.776Z,20.20
2019-04-11T07:54:36.975Z,24.37
2019-04-11T07:57:10.661Z,22.07
2019-04-11T07:59:46.803Z,22.77
2019-04-11T08:02:24.334Z,25.17
2019-04-11T08:05:04.486Z,20.65
2019-04-11T08:07:51.492Z,21.55
2019-04-11T08:10:27.754Z,20.40
2019-04-11T08:12:58.284Z,26.60
2019-04-11T08:15:44.729Z,28.00
2019-04-11T08:18:18.518Z,20.60
2019-04-11T08:20:51.839Z,28.42
2019-04-11T08:23:22.135Z,25.35
2019-04-11T08:25:58.277Z,22.67
2019-04-11T08:28:27.025Z,26.02
2019-04-11T08:31:13.792Z,27.80
2019-04-11T08:33:42.578Z,24.37
2019-04-11T08:36:16.050Z,27.73
2019-04-11T08:38:47.250Z,24.05
2019-04-11T08:41:17.652Z,27.00
2019-04-11T08:43:49.287Z,27.45
2019-04-11T08:49:29.935Z,23.90
2019-04-11T08:52:00.474Z,30.55
2019-04-11T08:54:48.433Z,24.00
2019-04-11T08:57:18.497Z,28.55
2019-04-11T09:00:02.057Z,26.75
2019-04-11T09:02:33.260Z,24.95
2019-04-11T09:05:18.232Z,24.60
2019-04-11T09:07:56.189Z,29.23
2019-04-11T09:10:42.361Z,27.37
2019-04-11T09:13:15.537Z,24.37
2019-04-11T09:16:04.078Z,26.73
2019-04-11T09:18:34.436Z,35.50
2019-04-11T09:21:04.992Z,29.65
2019-04-11T09:23:37.647Z,26.02
2019-04-11T09:26:17.973Z,25.40
2019-04-11T09:28:47.530Z,28.12
2019-04-11T09:31:35.797Z,26.48
2019-04-11T09:34:13.231Z,27.70
2019-04-11T09:36:43.723Z,27.15
2019-04-11T09:39:21.208Z,30.62
2019-04-11T09:41:57.203Z,27.93
2019-04-11T09:44:43.205Z,31.27
2019-04-11T09:47:13.691Z,27.15
2019-04-11T09:50:00.134Z,25.32
2019-04-11T09:52:31.073Z,25.48
2019-04-11T09:55:17.067Z,33.60
2019-04-11T09:57:48.253Z,31.68
2019-04-11T10:00:22.504Z,31.45
2019-04-11T10:02:53.013Z,25.90
2019-04-11T10:05:24.320Z,25.20
2019-04-11T10:08:11.026Z,28.87
2019-04-11T10:10:47.077Z,29.82
2019-04-11T10:13:18.481Z,25.65
2019-04-11T10:15:51.662Z,27.58
2019-04-11T10:18:32.205Z,35.13
2019-04-11T10:20:59.217Z,27.70
2019-04-11T10:23:32.666Z,26.77
2019-04-11T10:26:03.491Z,27.82
2019-04-11T10:28:51.456Z,30.10
2019-04-11T10:31:20.452Z,26.45
2019-04-11T10:33:50.768Z,26.90
2019-04-11T10:36:33.418Z,31.25
2019-04-11T10:39:21.747Z,28.50
2019-04-11T10:41:51.805Z,31.77
2019-04-11T10:44:21.862Z,26.73
2019-04-11T10:47:01.883Z,31.25
2019-04-11T10:49:38.657Z,35.08
2019-04-11T10:52:09.834Z,31.85
2019-04-11T10:54:40.736Z,32.03
2019-04-11T10:57:11.916Z,28.70
2019-04-11T10:59:44.972Z,28.40
2019-04-11T11:02:21.144Z,34.55
2019-04-11T11:04:51.245Z,34.78
2019-04-11T11:07:20.333Z,31.17
2019-04-11T11:09:56.709Z,35.00
2019-04-11T11:12:41.845Z,31.00
2019-04-11T11:15:13.463Z,30.85
2019-04-11T11:18:32.018Z,28.60
2019-04-11T11:20:45.493Z,30.20
2019-04-11T11:23:26.878Z,30.43
2019-04-11T11:26:09.116Z,33.02
2019-04-11T11:28:39.160Z,27.85
2019-04-11T11:31:11.978Z,32.67
2019-04-11T11:33:42.689Z,34.03
2019-04-11T11:36:15.302Z,31.80
2019-04-11T11:38:52.255Z,32.50
2019-04-11T11:41:38.598Z,32.35
2019-04-11T11:44:09.750Z,31.12
2019-04-11T11:46:42.712Z,31.70
2019-04-11T11:49:12.184Z,28.85
2019-04-11T11:51:45.745Z,29.87
2019-04-11T11:54:15.877Z,29.65
2019-04-11T11:56:47.277Z,27.80
2019-04-11T11:59:23.327Z,30.77
2019-04-11T12:01:54.297Z,27.40
2019-04-11T12:04:42.745Z,28.98
2019-04-11T12:07:12.898Z,29.30
2019-04-11T12:09:59.261Z,32.93
2019-04-11T12:12:38.229Z,30.48
2019-04-11T12:15:17.726Z,27.42
2019-04-11T12:17:59.605Z,28.42
2019-04-11T12:20:39.470Z,31.65
2019-04-11T12:23:10.834Z,30.77
2019-04-11T12:25:41.134Z,34.33
2019-04-11T12:28:13.707Z,30.82
2019-04-11T12:30:46.037Z,35.90
2019-04-11T12:33:21.785Z,33.02
2019-04-11T12:35:55.622Z,32.45
2019-04-11T12:38:28.840Z,35.50
2019-04-11T12:41:15.422Z,36.00
2019-04-11T12:44:01.829Z,31.23
2019-04-11T12:46:48.428Z,30.55
2019-04-11T12:49:27.813Z,38.38
2019-04-11T12:52:12.969Z,36.43
2019-04-11T12:54:43.099Z,34.03
2019-04-11T12:57:29.661Z,30.82
2019-04-11T13:00:08.216Z,34.80
2019-04-11T13:02:38.343Z,39.80
2019-04-11T13:05:09.040Z,31.27
2019-04-11T13:07:48.266Z,35.03
2019-04-11T13:10:16.893Z,34.23
2019-04-11T13:13:01.822Z,34.92
2019-04-11T13:15:31.883Z,36.60
2019-04-11T13:18:01.950Z,40.80
2019-04-11T13:20:38.102Z,35.23
2019-04-11T13:26:08.126Z,38.10
2019-04-11T13:28:36.577Z,36.90
2019-04-11T13:31:23.246Z,38.95
2019-04-11T13:33:53.306Z,38.10
2019-04-11T13:36:39.706Z,35.83
2019-04-11T13:39:08.240Z,37.20
2019-04-11T13:41:41.062Z,34.78
2019-04-11T13:44:11.438Z,37.30
2019-04-11T13:46:59.821Z,42.50
2019-04-11T13:49:46.075Z,35.58
2019-04-11T13:52:16.389Z,32.17
2019-04-11T13:55:02.715Z,36.20
2019-04-11T13:57:32.877Z,43.37
2019-04-11T14:00:21.712Z,40.73
2019-04-11T14:02:54.525Z,45.00
2019-04-11T14:05:22.966Z,38.65
2019-04-11T14:07:52.845Z,41.73
2019-04-11T14:10:22.616Z,35.25
2019-04-11T14:12:52.670Z,34.55
2019-04-11T14:15:21.575Z,37.80
2019-04-11T14:18:06.973Z,39.13
2019-04-11T14:20:37.093Z,40.93
2019-04-11T14:23:15.713Z,45.60
2019-04-11T14:25:53.063Z,40.60
2019-04-11T14:28:26.078Z,37.70
2019-04-11T14:31:08.442Z,38.17
2019-04-11T14:33:38.514Z,42.53
2019-04-11T14:36:33.745Z,42.00
2019-04-11T14:39:03.101Z,37.20
2019-04-11T14:41:33.285Z,42.20
2019-04-11T14:44:03.363Z,43.10
2019-04-11T14:46:42.043Z,40.70
2019-04-11T14:49:11.222Z,43.93
2019-04-11T14:51:41.304Z,41.97
2019-04-11T14:54:17.601Z,43.40
2019-04-11T14:56:52.179Z,41.20
2019-04-11T14:59:30.898Z,41.77
2019-04-11T15:02:18.891Z,40.53
2019-04-11T15:05:06.162Z,42.97
2019-04-11T15:07:36.046Z,48.43
2019-04-11T15:10:18.974Z,41.17
2019-04-11T15:12:48.738Z,44.03
2019-04-11T15:15:24.485Z,42.27
2019-04-11T15:17:55.910Z,42.50
2019-04-11T15:20:26.636Z,47.87
2019-04-11T15:22:56.768Z,47.57
2019-04-11T15:25:26.850Z,46.93
2019-04-11T15:28:02.906Z,44.63
2019-04-11T15:30:32.987Z,46.07
2019-04-11T15:33:19.572Z,41.70
2019-04-11T15:35:49.942Z,45.63
2019-04-11T15:38:37.805Z,43.13
2019-04-11T15:41:08.127Z,44.27
2019-04-11T15:43:49.854Z,42.30
2019-04-11T15:46:23.127Z,43.43
2019-04-11T15:49:02.121Z,46.25
2019-04-11T15:51:37.377Z,42.43
2019-04-11T15:54:16.676Z,38.17
2019-04-11T15:56:46.873Z,41.50
2019-04-11T15:59:32.912Z,41.33
2019-04-11T16:02:05.728Z,40.00
2019-04-11T16:04:35.887Z,41.05
2019-04-11T16:07:12.166Z,37.95
2019-04-11T16:09:43.326Z,36.00
2019-04-11T16:12:19.486Z,40.00
2019-04-11T16:14:49.840Z,36.63
2019-04-11T16:17:22.654Z,38.93
2019-04-11T16:19:52.933Z,39.42
2019-04-11T16:22:39.507Z,34.60
2019-04-11T16:25:12.400Z,40.47
2019-04-11T16:27:42.468Z,35.67
2019-04-11T16:30:12.890Z,37.70
2019-04-11T16:32:42.963Z,38.17
2019-04-11T16:35:19.014Z,37.03
2019-04-11T16:37:49.087Z,40.12
2019-04-11T16:40:20.907Z,39.70
2019-04-11T16:42:49.383Z,39.30
2019-04-11T16:45:36.014Z,41.00
2019-04-11T16:48:04.539Z,42.08
2019-04-11T16:50:33.077Z,36.93
2019-04-11T16:53:01.579Z,36.25
2019-04-11T16:55:29.984Z,36.55
2019-04-11T16:57:58.485Z,34.80
2019-04-11T17:00:26.964Z,40.00
2019-04-11T17:02:55.663Z,34.40
2019-04-11T17:05:26.761Z,33.78
2019-04-11T17:07:56.797Z,38.40
2019-04-11T17:10:43.067Z,32.30
2019-04-11T17:13:11.492Z,36.68
2019-04-11T17:15:40.242Z,36.40
2019-04-11T17:18:08.732Z,35.63
2019-04-11T17:20:39.694Z,38.65
2019-04-11T17:23:07.564Z,36.45
2019-04-11T17:25:36.060Z,35.30
2019-04-11T17:28:04.557Z,38.10
2019-04-11T17:30:32.978Z,41.37
2019-04-11T17:33:01.434Z,38.98
2019-04-11T17:35:31.716Z,40.20
2019-04-11T17:38:01.074Z,44.70
2019-04-11T17:40:30.478Z,49.40
2019-04-11T17:42:58.918Z,41.70
2019-04-11T17:45:27.330Z,37.60
2019-04-11T17:47:57.299Z,37.05
2019-04-11T17:50:25.948Z,38.35
2019-04-11T17:52:54.886Z,36.80
2019-04-11T17:58:11.265Z,34.73
2019-04-11T18:00:44.355Z,40.20
2019-04-11T18:03:12.787Z,34.20
2019-04-11T18:05:41.671Z,37.15
2019-04-11T18:08:10.144Z,38.02
2019-04-11T18:10:38.616Z,35.10
2019-04-11T18:13:07.214Z,37.45
2019-04-11T18:15:35.690Z,43.40
2019-04-11T18:18:05.520Z,33.42
2019-04-11T18:20:36.783Z,36.00
2019-04-11T18:23:05.004Z,37.90
2019-04-11T18:25:33.980Z,32.63
2019-04-11T18:28:02.442Z,38.78
2019-04-11T18:30:30.857Z,41.63
2019-04-11T18:32:59.512Z,45.00
2019-04-11T18:35:31.761Z,44.58
2019-04-11T18:38:01.779Z,44.38
2019-04-11T18:40:29.833Z,37.30
2019-04-11T18:42:58.267Z,37.95
2019-04-11T18:45:29.678Z,39.90
2019-04-11T18:48:00.772Z,43.73
2019-04-11T18:50:29.561Z,43.75
2019-04-11T18:52:59.598Z,35.63
2019-04-11T18:55:28.242Z,37.83
2019-04-11T18:57:56.651Z,34.45
2019-04-11T19:00:25.564Z,34.30
2019-04-11T19:02:54.152Z,36.13
2019-04-11T19:05:28.505Z,36.08
2019-04-11T19:07:52.994Z,42.45
2019-04-11T19:10:28.436Z,37.55
2019-04-11T19:12:56.854Z,35.45
2019-04-11T19:15:25.281Z,38.15
2019-04-11T19:18:05.725Z,36.25
2019-04-11T19:20:23.872Z,36.83
2019-04-11T19:22:52.296Z,38.38
2019-04-11T19:25:20.708Z,37.13
2019-04-11T19:27:52.193Z,32.90
2019-04-11T19:30:19.626Z,33.85
2019-04-11T19:32:48.046Z,35.23
2019-04-11T19:35:16.474Z,32.15
2019-04-11T19:37:45.161Z,31.60
2019-04-11T19:40:16.309Z,34.05
2019-04-11T19:42:44.195Z,34.83
2019-04-11T19:45:12.860Z,36.93
2019-04-11T19:47:41.854Z,39.58
2019-04-11T19:50:10.427Z,32.30
2019-04-11T19:52:45.262Z,35.60
2019-04-11T19:55:10.967Z,35.58
2019-04-11T19:57:39.778Z,34.27
2019-04-11T20:00:10.201Z,31.25
2019-04-11T20:02:38.645Z,27.90
2019-04-11T20:05:07.138Z,33.78
2019-04-11T20:07:36.489Z,30.17
2019-04-11T20:10:06.554Z,32.28
2019-04-11T20:12:34.952Z,27.93
2019-04-11T20:15:05.219Z,31.02
2019-04-11T20:17:43.771Z,30.15
2019-04-11T20:20:07.173Z,28.55
2019-04-11T20:22:39.289Z,30.17
2019-04-11T20:25:16.330Z,28.10
2019-04-11T20:27:45.311Z,29.75
2019-04-11T20:30:13.790Z,32.58
2019-04-11T20:32:42.210Z,27.77
2019-04-11T20:35:10.702Z,30.88
2019-04-11T20:37:42.206Z,30.00
2019-04-11T20:40:10.005Z,31.12
2019-04-11T20:42:38.437Z,25.05
2019-04-11T20:45:07.294Z,35.13
2019-04-11T20:47:35.757Z,32.30
2019-04-11T20:50:07.570Z,27.67
2019-04-11T20:52:35.330Z,31.07
2019-04-11T20:55:08.988Z,28.35
2019-04-11T20:57:34.935Z,27.45
2019-04-11T21:00:04.355Z,26.95
2019-04-11T21:02:32.882Z,31.02
2019-04-11T21:05:01.985Z,29.27
2019-04-11T21:07:31.949Z,26.62
2019-04-11T21:10:03.599Z,29.23
2019-04-11T21:12:30.929Z,28.67
2019-04-11T21:14:59.611Z,28.57
2019-04-11T21:17:28.052Z,28.32
2019-04-11T21:19:56.454Z,28.70
2019-04-11T21:22:24.901Z,32.23
2019-04-11T21:24:53.323Z,28.35
2019-04-11T21:27:21.833Z,28.92
2019-04-11T21:29:50.270Z,24.82
2019-04-11T21:32:18.690Z,31.50
2019-04-11T21:34:47.136Z,26.62
2019-04-11T21:37:15.543Z,28.20
2019-04-11T21:39:43.958Z,26.87
2019-04-11T21:42:12.390Z,26.75
2019-04-11T21:44:40.802Z,24.95
2019-04-11T21:47:09.216Z,25.25
2019-04-11T21:49:37.778Z,30.20
2019-04-11T21:52:06.360Z,27.27
2019-04-11T21:54:34.882Z,23.80
2019-04-11T21:57:03.372Z,25.02
2019-04-11T21:59:31.781Z,27.20
2019-04-11T22:02:00.341Z,30.37
2019-04-11T22:04:31.110Z,26.52
2019-04-11T22:07:00.892Z,25.48
2019-04-11T22:09:29.147Z,26.30
2019-04-11T22:11:57.555Z,27.00
2019-04-11T22:14:26.115Z,24.72
2019-04-11T22:16:55.030Z,27.70
2019-04-11T22:19:23.719Z,24.23
2019-04-11T22:21:52.278Z,28.00
2019-04-11T22:24:20.694Z,26.30
2019-04-11T22:26:50.610Z,28.07
2019-04-11T22:29:19.680Z,27.30
2019-04-11T22:31:48.115Z,24.95
2019-04-11T22:34:18.752Z,28.45
2019-04-11T22:36:47.235Z,29.48
2019-04-11T22:39:15.683Z,32.05
2019-04-11T22:41:44.103Z,25.85
2019-04-11T22:44:12.876Z,24.60
2019-04-11T22:46:41.282Z,27.60
2019-04-11T22:49:09.750Z,24.55
2019-04-11T22:51:42.682Z,29.35
2019-04-11T22:54:08.351Z,25.45
2019-04-11T22:56:36.749Z,23.35
2019-04-11T22:59:05.175Z,24.35
2019-04-11T23:01:34.021Z,23.25
2019-04-11T23:04:02.514Z,25.15
2019-04-11T23:06:30.924Z,27.95
2019-04-11T23:08:59.427Z,26.70
2019-04-11T23:11:27.923Z,27.10
2019-04-11T23:13:56.342Z,27.17
2019-04-11T23:16:24.770Z,30.27
2019-04-11T23:18:53.265Z,23.10
2019-04-11T23:21:21.674Z,27.58
2019-04-11T23:23:50.225Z,24.87
2019-04-11T23:26:18.631Z,23.05
2019-04-11T23:28:47.101Z,27.40
2019-04-11T23:31:19.966Z,29.37
2019-04-11T23:33:46.529Z,27.65
2019-04-11T23:36:15.010Z,26.80
2019-04-11T23:38:43.405Z,25.17
2019-04-11T23:41:11.832Z,23.73
2019-04-11T23:43:40.236Z,22.30
2019-04-11T23:46:08.716Z,23.65
2019-04-11T23:48:37.205Z,23.18
2019-04-11T23:51:05.629Z,24.05
2019-04-11T23:53:34.057Z,27.95
2019-04-11T23:56:02.770Z,21.52
2019-04-11T23:58:32.058Z,22.60
